Time;durP1;ratioP1;P1;durP2;ratioP2;P2;SDS_P1;SDS_P2;PMS_P1;PMS_P2;Temp;Humidity;BMP_temperature;BMP_pressure;BME280_temperature;BME280_humidity;BME280_pressure;Samples;Min_cycle;Max_cycle;Signal;HPM_P1;HPM_P2
2020/12/12 00:02:20;;;;;;;85.47;44.33;;;8.30;85.80;;;;;;5086249;28;20402;-46
2020/12/12 00:04:45;;;;;;;87.88;43.28;;;8.30;85.10;;;;;;5091342;28;20178;-47
2020/12/12 00:07:11;;;;;;;79.95;38.83;;;8.30;85.20;;;;;;5111919;28;20110;-50
2020/12/12 00:09:37;;;;;;;77.07;39.40;;;8.20;85.10;;;;;;5111815;28;20139;-49
2020/12/12 00:12:04;;;;;;;85.13;41.92;;;8.40;84.90;;;;;;5095436;28;20040;-50
2020/12/12 00:14:31;;;;;;;82.60;39.80;;;8.30;84.60;;;;;;5077742;28;20035;-49
2020/12/12 00:16:56;;;;;;;80.05;39.28;;;8.20;85.40;;;;;;5112242;28;20483;-50
2020/12/12 00:19:22;;;;;;;79.53;40.40;;;8.20;85.30;;;;;;5095103;28;20047;-47
2020/12/12 00:21:53;;;;;;;82.88;39.15;;;8.20;85.60;;;;;;5112019;28;20047;-48
2020/12/12 00:24:19;;;;;;;85.55;40.70;;;8.20;85.00;;;;;;5112185;28;20023;-49
2020/12/12 00:26:45;;;;;;;84.35;43.45;;;8.30;84.30;;;;;;5111547;28;20023;-49
2020/12/12 00:29:13;;;;;;;77.57;39.40;;;8.30;84.80;;;;;;5094522;28;20390;-46
2020/12/12 00:31:39;;;;;;;79.38;39.47;;;8.20;84.60;;;;;;5112006;28;20028;-48
2020/12/12 00:34:06;;;;;;;74.55;37.35;;;8.20;85.30;;;;;;5096626;28;20036;-50
2020/12/12 00:36:37;;;;;;;81.28;40.35;;;8.00;85.10;;;;;;5094151;28;20042;-57
2020/12/12 00:39:03;;;;;;;75.05;38.13;;;8.00;85.80;;;;;;5093170;28;20029;-52
2020/12/12 00:41:37;;;;;;;74.88;37.67;;;8.00;86.20;;;;;;5093723;28;20050;-52
2020/12/12 00:44:04;;;;;;;63.38;34.33;;;7.90;86.50;;;;;;5108685;28;20044;-56
2020/12/12 00:46:30;;;;;;;63.38;33.15;;;7.70;85.80;;;;;;5093425;28;20469;-50
2020/12/12 00:48:56;;;;;;;64.40;33.83;;;7.90;85.30;;;;;;5093179;28;20077;-50
2020/12/12 00:51:21;;;;;;;61.53;32.95;;;7.90;84.90;;;;;;5091465;28;20032;-54
2020/12/12 00:53:48;;;;;;;61.67;34.25;;;8.00;84.60;;;;;;5093424;28;20475;-57
2020/12/12 00:56:14;;;;;;;66.18;34.05;;;8.20;84.20;;;;;;5092650;28;20406;-49
2020/12/12 00:58:40;;;;;;;63.08;33.55;;;8.10;84.60;;;;;;5095899;28;20515;-54
2020/12/12 01:01:06;;;;;;;67.00;35.28;;;8.30;84.30;;;;;;5097188;28;20036;-58
2020/12/12 01:03:32;;;;;;;72.32;38.53;;;8.40;83.80;;;;;;5096929;28;20387;-50
2020/12/12 01:05:58;;;;;;;73.43;38.05;;;8.20;83.50;;;;;;5097107;28;20020;-55
2020/12/12 01:08:24;;;;;;;69.30;36.40;;;8.30;84.20;;;;;;5096717;28;20484;-50
2020/12/12 01:10:51;;;;;;;69.95;34.85;;;8.30;83.60;;;;;;5096724;28;20020;-54
2020/12/12 01:13:17;;;;;;;63.33;33.45;;;8.20;83.50;;;;;;5096698;28;20460;-57
2020/12/12 01:15:43;;;;;;;63.55;33.88;;;8.30;83.50;;;;;;5097219;28;20027;-50
2020/12/12 01:18:09;;;;;;;67.60;37.22;;;8.40;83.40;;;;;;5096480;28;20379;-51
2020/12/12 01:20:35;;;;;;;64.65;34.33;;;8.50;82.40;;;;;;5095551;28;20036;-58
2020/12/12 01:23:01;;;;;;;64.80;35.42;;;8.50;82.50;;;;;;5094803;28;20129;-49
2020/12/12 01:25:27;;;;;;;66.30;36.20;;;8.60;82.80;;;;;;5114887;28;20486;-55
2020/12/12 01:27:53;;;;;;;65.80;36.88;;;8.60;82.50;;;;;;5114923;28;20042;-52
2020/12/12 01:30:18;;;;;;;59.67;33.95;;;8.50;83.00;;;;;;5064364;28;20085;-58
2020/12/12 01:32:44;;;;;;;56.67;32.10;;;8.40;82.60;;;;;;5080727;28;20063;-51
2020/12/12 01:35:13;;;;;;;65.80;35.28;;;8.50;82.50;;;;;;5114720;28;20421;-56
2020/12/12 01:37:38;;;;;;;61.63;34.13;;;8.50;82.40;;;;;;5114600;28;20035;-57
2020/12/12 01:40:05;;;;;;;58.33;32.80;;;8.50;82.00;;;;;;5096708;28;20138;-57
2020/12/12 01:42:33;;;;;;;63.53;34.53;;;8.60;82.10;;;;;;5114640;28;20028;-50
2020/12/12 01:44:59;;;;;;;66.75;36.10;;;8.60;82.30;;;;;;5114575;28;20027;-49
2020/12/12 01:47:26;;;;;;;61.65;34.17;;;8.70;81.90;;;;;;5114430;28;20103;-57
2020/12/12 01:49:53;;;;;;;73.25;37.53;;;8.70;81.90;;;;;;5114284;28;20063;-50
2020/12/12 01:52:19;;;;;;;64.20;34.08;;;8.70;81.50;;;;;;5114294;28;20073;-49
2020/12/12 01:54:55;;;;;;;65.63;35.33;;;8.60;81.60;;;;;;5114335;28;20142;-53
2020/12/12 01:57:26;;;;;;;67.60;36.13;;;8.60;81.50;;;;;;5096764;28;20497;-52
2020/12/12 01:59:52;;;;;;;69.57;36.20;;;8.60;82.10;;;;;;5114136;28;20027;-50
2020/12/12 02:02:22;;;;;;;66.07;36.30;;;8.70;82.20;;;;;;5060308;28;20038;-57
2020/12/12 02:04:53;;;;;;;70.10;38.17;;;8.70;81.90;;;;;;5095795;28;20028;-58
2020/12/12 02:07:20;;;;;;;65.90;36.40;;;8.60;82.10;;;;;;5095647;28;20059;-50
2020/12/12 02:09:47;;;;;;;71.55;37.03;;;8.60;82.50;;;;;;5095126;28;20273;-54
2020/12/12 02:12:14;;;;;;;75.10;38.08;;;8.40;83.00;;;;;;5095692;28;20032;-56
2020/12/12 02:14:40;;;;;;;74.90;38.97;;;8.40;83.20;;;;;;5095558;28;20024;-50
2020/12/12 02:17:08;;;;;;;81.65;39.20;;;8.20;83.90;;;;;;5095510;28;20028;-47
2020/12/12 02:19:36;;;;;;;84.95;41.20;;;8.00;84.70;;;;;;5095464;28;20139;-56
2020/12/12 02:22:05;;;;;;;85.13;41.20;;;8.00;85.60;;;;;;5094892;28;20376;-51
2020/12/12 02:24:33;;;;;;;88.30;41.80;;;7.90;86.20;;;;;;5094199;28;20036;-50
2020/12/12 02:27:01;;;;;;;81.50;38.85;;;7.80;86.60;;;;;;5092950;28;20372;-50
2020/12/12 02:29:39;;;;;;;79.38;40.17;;;7.80;87.20;;;;;;5058879;28;20040;-53
2020/12/12 02:32:06;;;;;;;90.30;39.67;;;7.60;88.30;;;;;;5089309;28;20043;-56
2020/12/12 02:34:32;;;;;;;87.93;39.40;;;7.60;88.60;;;;;;5058520;28;20511;-51
2020/12/12 02:36:58;;;;;;;82.55;37.30;;;7.50;88.90;;;;;;5058290;28;20031;-53
2020/12/12 02:39:24;;;;;;;80.13;38.97;;;7.60;88.90;;;;;;5091701;28;20046;-52
2020/12/12 02:41:49;;;;;;;80.65;37.60;;;7.60;88.90;;;;;;5091859;28;20047;-55
2020/12/12 02:44:15;;;;;;;79.18;38.10;;;7.40;89.70;;;;;;5091769;28;20038;-53
2020/12/12 02:46:41;;;;;;;79.55;36.72;;;7.40;89.90;;;;;;5092131;28;20032;-55
2020/12/12 02:49:07;;;;;;;76.43;36.03;;;7.50;89.50;;;;;;5057950;28;20047;-58
2020/12/12 02:51:32;;;;;;;79.68;37.70;;;7.50;89.80;;;;;;5091989;28;20549;-55
2020/12/12 02:54:08;;;;;;;74.65;35.72;;;7.40;89.90;;;;;;5091641;28;20024;-55
2020/12/12 02:56:35;;;;;;;74.18;36.00;;;7.30;89.80;;;;;;5088011;28;20119;-51
2020/12/12 02:59:01;;;;;;;73.97;35.63;;;7.50;90.00;;;;;;5093623;28;20036;-54
2020/12/12 03:01:27;;;;;;;70.60;34.15;;;7.20;90.20;;;;;;5093958;28;20045;-53
2020/12/12 03:03:55;;;;;;;70.63;34.72;;;7.50;90.00;;;;;;5091766;28;20664;-54
2020/12/12 03:06:29;;;;;;;70.30;31.58;;;7.40;89.40;;;;;;5092703;28;20027;-54
2020/12/12 03:08:55;;;;;;;69.45;34.20;;;7.20;90.30;;;;;;5092272;28;20100;-55
2020/12/12 03:11:26;;;;;;;67.20;34.00;;;7.30;90.90;;;;;;5109085;28;20028;-53
2020/12/12 03:13:55;;;;;;;60.72;31.05;;;7.40;90.10;;;;;;5108231;28;20036;-49
2020/12/12 03:16:21;;;;;;;60.88;29.90;;;7.60;88.80;;;;;;5091118;28;20040;-49
2020/12/12 03:18:48;;;;;;;68.03;31.90;;;7.70;88.90;;;;;;5021999;28;20100;-59
2020/12/12 03:21:19;;;;;;;62.08;30.48;;;7.60;89.00;;;;;;5073995;28;20518;-56
2020/12/12 03:23:44;;;;;;;65.07;30.65;;;7.80;88.70;;;;;;5082139;28;20024;-59
2020/12/12 03:26:12;;;;;;;62.97;30.25;;;7.90;88.10;;;;;;5091199;28;20514;-51
2020/12/12 03:28:39;;;;;;;64.28;30.50;;;7.60;87.10;;;;;;5050842;28;20049;-52
2020/12/12 03:31:05;;;;;;;62.83;31.10;;;7.70;87.70;;;;;;5034045;28;20087;-51
2020/12/12 03:33:38;;;;;;;59.75;30.20;;;7.50;87.30;;;;;;5017498;28;20041;-52
2020/12/12 03:36:07;;;;;;;62.05;29.85;;;7.30;88.40;;;;;;5034073;28;20041;-56
2020/12/12 03:38:37;;;;;;;61.25;29.88;;;7.30;88.30;;;;;;5017385;28;20095;-57
2020/12/12 03:41:06;;;;;;;68.45;31.23;;;7.20;88.70;;;;;;5050880;28;20032;-57
2020/12/12 03:43:33;;;;;;;65.50;30.88;;;7.10;89.70;;;;;;5017108;28;20571;-55
2020/12/12 03:46:01;;;;;;;74.25;32.72;;;7.10;89.90;;;;;;4997587;28;20704;-58
2020/12/12 03:48:32;;;;;;;66.25;31.52;;;7.10;90.20;;;;;;5028085;28;20029;-51
2020/12/12 03:51:02;;;;;;;64.20;30.80;;;7.40;89.80;;;;;;5013938;28;20141;-57
2020/12/12 03:53:31;;;;;;;64.75;31.83;;;;;;;;;;4989123;28;20030;-56
2020/12/12 03:55:56;;;;;;;64.80;31.52;;;7.90;87.30;;;;;;5010461;28;20410;-60
2020/12/12 03:58:22;;;;;;;60.60;30.80;;;8.00;87.20;;;;;;5010222;28;20478;-52
2020/12/12 04:00:49;;;;;;;64.20;30.73;;;8.20;86.50;;;;;;5010805;28;20046;-52
2020/12/12 04:03:15;;;;;;;63.92;31.10;;;8.30;85.80;;;;;;5010608;28;20517;-55
2020/12/12 04:05:44;;;;;;;58.70;31.85;;;8.30;85.60;;;;;;5010500;28;20048;-52
2020/12/12 04:08:12;;;;;;;61.40;31.80;;;8.30;85.30;;;;;;5010410;28;20072;-53
2020/12/12 04:10:39;;;;;;;68.28;31.98;;;8.40;85.10;;;;;;5010741;28;20042;-54
2020/12/12 04:13:05;;;;;;;66.90;32.55;;;8.50;84.40;;;;;;5024993;28;20160;-58
2020/12/12 04:15:31;;;;;;;65.47;31.52;;;8.40;84.30;;;;;;5029942;28;20029;-47
2020/12/12 04:17:57;;;;;;;64.07;31.77;;;8.30;85.60;;;;;;5053866;28;20033;-58
2020/12/12 04:20:22;;;;;;;67.72;32.22;;;8.40;85.30;;;;;;5061009;28;20024;-51
2020/12/12 04:22:48;;;;;;;73.80;32.97;;;8.40;86.00;;;;;;5077463;28;20380;-50
2020/12/12 04:25:14;;;;;;;72.30;34.92;;;8.30;86.00;;;;;;5089196;28;20483;-50
2020/12/12 04:27:40;;;;;;;76.30;34.15;;;8.20;86.20;;;;;;5107467;28;20036;-55
2020/12/12 04:30:06;;;;;;;74.55;34.67;;;8.20;86.40;;;;;;5093549;28;20024;-51
2020/12/12 04:32:32;;;;;;;71.60;31.83;;;8.20;86.40;;;;;;5095842;28;20361;-56
2020/12/12 04:34:57;;;;;;;74.97;33.78;;;8.20;86.30;;;;;;5097434;28;20078;-53
2020/12/12 04:37:23;;;;;;;64.10;32.90;;;8.20;86.20;;;;;;5097051;28;20032;-52
2020/12/12 04:39:49;;;;;;;66.90;31.27;;;8.40;85.80;;;;;;5089557;28;20037;-56
2020/12/12 04:42:16;;;;;;;79.50;34.50;;;8.50;85.80;;;;;;5092162;28;20043;-53
2020/12/12 04:44:45;;;;;;;71.75;33.83;;;8.50;85.20;;;;;;5077357;28;20017;-55
2020/12/12 04:47:12;;;;;;;66.60;32.35;;;8.50;85.60;;;;;;5077824;28;20107;-57
2020/12/12 04:49:39;;;;;;;73.70;32.85;;;8.40;85.50;;;;;;5083188;28;20033;-53
2020/12/12 04:52:05;;;;;;;68.85;33.92;;;8.40;85.50;;;;;;5085640;28;20031;-56
2020/12/12 04:54:33;;;;;;;79.20;42.72;;;8.40;86.10;;;;;;5096748;28;20032;-51
2020/12/12 04:57:04;;;;;;;69.43;35.53;;;8.50;85.40;;;;;;5097141;28;20039;-61
2020/12/12 04:59:32;;;;;;;67.38;35.70;;;8.50;85.60;;;;;;5096869;28;20097;-52
2020/12/12 05:02:02;;;;;;;73.28;37.78;;;8.50;85.10;;;;;;5112210;28;20494;-51
2020/12/12 05:04:28;;;;;;;75.55;35.65;;;8.50;85.10;;;;;;5096851;28;20043;-53
2020/12/12 05:06:54;;;;;;;70.22;36.03;;;8.60;84.60;;;;;;5097151;28;20475;-52
2020/12/12 05:09:20;;;;;;;67.30;33.65;;;8.50;84.60;;;;;;5096644;28;20048;-48
2020/12/12 05:11:47;;;;;;;66.30;35.03;;;8.50;84.50;;;;;;5061488;28;20549;-52
2020/12/12 05:14:15;;;;;;;72.50;35.60;;;8.40;85.90;;;;;;5096913;28;20024;-51
2020/12/12 05:16:41;;;;;;;73.97;35.88;;;8.20;86.20;;;;;;5096941;28;20024;-58
2020/12/12 05:19:07;;;;;;;81.13;36.25;;;8.00;87.10;;;;;;5096716;28;20038;-55
2020/12/12 05:21:32;;;;;;;70.32;37.05;;;8.00;87.50;;;;;;5096811;28;20450;-59
2020/12/12 05:24:02;;;;;;;72.55;36.85;;;7.90;87.20;;;;;;5096622;28;20026;-50
2020/12/12 05:26:29;;;;;;;71.80;36.80;;;8.00;87.90;;;;;;5096414;28;20020;-50
2020/12/12 05:29:00;;;;;;;82.38;39.40;;;8.00;87.30;;;;;;5096796;28;20062;-48
2020/12/12 05:31:27;;;;;;;83.47;38.60;;;8.00;87.30;;;;;;5096391;28;20078;-55
2020/12/12 05:33:54;;;;;;;76.30;37.45;;;8.00;88.00;;;;;;5094706;28;20035;-55
2020/12/12 05:36:26;;;;;;;66.63;34.08;;;7.90;87.50;;;;;;5096264;28;20436;-54
2020/12/12 05:38:59;;;;;;;71.45;36.17;;;8.00;87.40;;;;;;5096308;28;20386;-53
2020/12/12 05:41:28;;;;;;;62.83;33.90;;;8.00;87.40;;;;;;5096155;28;20541;-53
2020/12/12 05:43:54;;;;;;;74.20;36.05;;;8.10;86.80;;;;;;5110957;28;20037;-54
2020/12/12 05:46:24;;;;;;;73.30;37.70;;;8.10;87.00;;;;;;5096086;28;20436;-52
2020/12/12 05:48:51;;;;;;;74.72;37.20;;;8.10;87.10;;;;;;5096013;28;20020;-52
2020/12/12 05:51:18;;;;;;;72.15;37.03;;;8.20;86.40;;;;;;5096020;28;20391;-52
2020/12/12 05:53:45;;;;;;;69.55;36.42;;;8.20;87.20;;;;;;5096031;28;20028;-51
2020/12/12 05:56:12;;;;;;;64.97;34.30;;;8.40;86.10;;;;;;5096086;28;20493;-52
2020/12/12 05:58:45;;;;;;;68.15;34.88;;;8.50;85.60;;;;;;5095773;28;20357;-50
2020/12/12 06:01:22;;;;;;;69.15;36.30;;;8.50;85.20;;;;;;5095779;28;20032;-55
2020/12/12 06:03:54;;;;;;;64.38;34.13;;;8.60;84.70;;;;;;5095975;28;20043;-52
2020/12/12 06:06:24;;;;;;;67.57;34.17;;;8.50;84.00;;;;;;5096060;28;20047;-51
2020/12/12 06:08:58;;;;;;;68.82;35.75;;;8.60;84.70;;;;;;5095688;28;20109;-56
2020/12/12 06:11:27;;;;;;;63.17;33.28;;;8.70;84.10;;;;;;5095709;28;20024;-52
2020/12/12 06:14:00;;;;;;;67.28;35.03;;;8.80;83.60;;;;;;5095837;28;20032;-49
2020/12/12 06:16:27;;;;;;;65.10;36.00;;;8.70;83.80;;;;;;5095480;28;20028;-49
2020/12/12 06:19:14;;;;;;;67.95;34.53;;;8.60;83.90;;;;;;5095520;28;20031;-49
2020/12/12 06:21:42;;;;;;;66.22;35.03;;;8.70;83.90;;;;;;5110654;28;20492;-52
2020/12/12 06:24:10;;;;;;;66.05;35.05;;;8.70;84.00;;;;;;5095148;28;20161;-50
2020/12/12 06:27:05;;;;;;;81.47;41.97;;;8.60;84.10;;;;;;5095255;28;20738;-54
2020/12/12 06:29:52;;;;;;;68.65;36.08;;;8.50;84.20;;;;;;5092831;28;20237;-51
2020/12/12 06:32:19;;;;;;;74.65;35.83;;;8.40;84.80;;;;;;5095051;28;20035;-55
2020/12/12 06:34:50;;;;;;;82.65;40.38;;;8.30;85.30;;;;;;5095126;28;20031;-51
2020/12/12 06:37:35;;;;;;;75.10;37.70;;;8.30;85.50;;;;;;5095105;28;20035;-48
2020/12/12 06:40:08;;;;;;;77.70;41.40;;;8.50;85.10;;;;;;5095093;28;20076;-57
2020/12/12 06:42:39;;;;;;;77.97;40.17;;;8.50;84.80;;;;;;5095126;28;20056;-52
2020/12/12 06:45:16;;;;;;;80.57;42.38;;;8.50;84.70;;;;;;5093466;28;20040;-48
2020/12/12 06:47:53;;;;;;;93.95;44.35;;;8.70;84.50;;;;;;5094849;28;20028;-58
2020/12/12 06:50:21;;;;;;;77.53;40.50;;;8.70;84.20;;;;;;5110626;28;20066;-48
2020/12/12 06:52:51;;;;;;;79.40;40.47;;;8.80;84.50;;;;;;5094883;28;20383;-50
2020/12/12 06:55:19;;;;;;;88.45;43.03;;;8.70;84.00;;;;;;5094988;28;20024;-52
2020/12/12 06:57:47;;;;;;;92.47;47.63;;;8.70;83.70;;;;;;5094811;28;20032;-53
2020/12/12 07:00:20;;;;;;;88.97;44.45;;;8.60;84.20;;;;;;5094674;28;20070;-59
2020/12/12 07:03:05;;;;;;;82.88;40.53;;;8.50;84.50;;;;;;5094667;28;20480;-49
2020/12/12 07:05:33;;;;;;;83.97;41.33;;;8.40;84.90;;;;;;5094654;28;20020;-56
2020/12/12 07:08:10;;;;;;;87.35;39.67;;;8.50;85.20;;;;;;5093085;28;20383;-55
2020/12/12 07:10:37;;;;;;;90.47;43.58;;;8.30;85.80;;;;;;5109864;28;20040;-52
2020/12/12 07:13:04;;;;;;;93.13;42.20;;;8.30;86.60;;;;;;5109785;28;20040;-47
2020/12/12 07:15:36;;;;;;;98.60;45.25;;;8.30;86.70;;;;;;5094368;28;20035;-57
2020/12/12 07:18:07;;;;;;;99.80;41.40;;;8.20;86.40;;;;;;5092981;28;20040;-52
2020/12/12 07:20:38;;;;;;;83.47;40.20;;;8.20;86.20;;;;;;5094211;28;20035;-51
2020/12/12 07:23:05;;;;;;;105.57;45.70;;;8.40;86.70;;;;;;5109538;28;20111;-56
2020/12/12 07:25:34;;;;;;;104.32;49.47;;;8.40;86.10;;;;;;5094348;28;20536;-55
2020/12/12 07:28:04;;;;;;;92.97;44.60;;;8.30;86.30;;;;;;5094024;28;20067;-56
2020/12/12 07:30:30;;;;;;;110.90;49.25;;;8.40;86.60;;;;;;5018358;28;20054;-46
2020/12/12 07:32:55;;;;;;;99.00;41.95;;;8.30;86.50;;;;;;5035020;28;20037;-51
2020/12/12 07:35:22;;;;;;;100.28;45.00;;;8.30;86.90;;;;;;5051965;28;20041;-49
2020/12/12 07:37:47;;;;;;;108.05;46.65;;;8.30;87.20;;;;;;5051526;28;20600;-45
2020/12/12 07:40:13;;;;;;;98.38;43.85;;;8.30;86.80;;;;;;5051516;28;20136;-46
2020/12/12 07:42:39;;;;;;;98.18;42.40;;;8.30;87.30;;;;;;5051550;28;20402;-41
2020/12/12 07:45:25;;;;;;;100.18;49.30;;;8.40;87.20;;;;;;5051761;28;20063;-43
2020/12/12 07:48:03;;;;;;;102.90;42.85;;;8.20;87.30;;;;;;5051688;28;20036;-47
2020/12/12 07:50:29;;;;;;;96.13;43.20;;;8.40;87.30;;;;;;5051486;28;20041;-51
2020/12/12 07:52:54;;;;;;;96.38;42.13;;;8.40;86.80;;;;;;5051571;28;20132;-45
2020/12/12 07:55:22;;;;;;;85.05;38.08;;;8.40;87.10;;;;;;5051923;28;20033;-45
2020/12/12 07:57:51;;;;;;;95.03;43.05;;;8.20;86.90;;;;;;5051419;28;20116;-47
2020/12/12 08:00:17;;;;;;;99.32;39.50;;;8.30;87.70;;;;;;5051066;28;20048;-48
2020/12/12 08:02:44;;;;;;;92.03;36.35;;;8.40;87.00;;;;;;5051299;28;20041;-46
2020/12/12 08:05:10;;;;;;;85.03;35.72;;;8.20;87.50;;;;;;5047257;28;20167;-45
2020/12/12 08:07:36;;;;;;;93.55;36.10;;;8.00;87.80;;;;;;5055876;28;20467;-45
2020/12/12 08:10:05;;;;;;;96.95;37.78;;;8.00;88.90;;;;;;5088426;28;20488;-47
2020/12/12 08:12:33;;;;;;;91.03;38.92;;;8.10;89.00;;;;;;5093126;28;20035;-48
2020/12/12 08:15:14;;;;;;;99.38;43.05;;;7.90;88.90;;;;;;5092822;28;20364;-49
2020/12/12 08:17:40;;;;;;;92.88;39.15;;;8.10;89.60;;;;;;5092091;28;20038;-48
2020/12/12 08:20:11;;;;;;;100.95;44.28;;;8.30;88.00;;;;;;5108393;28;20135;-51
2020/12/12 08:22:38;;;;;;;90.90;37.88;;;8.20;87.70;;;;;;5087349;28;20039;-50
2020/12/12 08:25:07;;;;;;;86.07;35.25;;;8.30;88.50;;;;;;5092999;28;20031;-48
2020/12/12 08:27:33;;;;;;;87.65;36.72;;;8.10;88.10;;;;;;5091302;28;20174;-46
2020/12/12 08:30:00;;;;;;;87.13;35.13;;;8.20;87.70;;;;;;5085134;28;20024;-44
2020/12/12 08:32:27;;;;;;;84.75;36.03;;;8.10;88.20;;;;;;5084938;28;20114;-47
2020/12/12 08:35:12;;;;;;;89.47;37.30;;;8.20;88.20;;;;;;5091455;28;20387;-47
2020/12/12 08:37:40;;;;;;;79.30;33.78;;;8.30;88.30;;;;;;5086605;28;20028;-47
2020/12/12 08:40:10;;;;;;;81.53;36.33;;;8.30;87.50;;;;;;5090905;28;20050;-49
2020/12/12 08:42:36;;;;;;;81.22;38.83;;;8.20;88.60;;;;;;5092397;28;20046;-48
2020/12/12 08:45:16;;;;;;;80.95;36.20;;;8.40;89.00;;;;;;5091995;28;20032;-45
2020/12/12 08:47:43;;;;;;;82.70;36.03;;;8.40;87.50;;;;;;5091349;28;20043;-50
2020/12/12 08:50:10;;;;;;;78.43;37.72;;;8.30;87.20;;;;;;5092486;28;20020;-52
2020/12/12 08:52:36;;;;;;;91.00;43.00;;;8.30;87.60;;;;;;5107163;28;20037;-50
2020/12/12 08:55:06;;;;;;;70.88;37.42;;;8.20;88.10;;;;;;5092197;28;20495;-51
2020/12/12 08:57:32;;;;;;;68.25;35.55;;;8.30;88.50;;;;;;5089801;28;20035;-50
2020/12/12 09:00:03;;;;;;;60.72;31.40;;;8.30;87.30;;;;;;5048070;28;20041;-48
2020/12/12 09:02:29;;;;;;;67.03;32.15;;;8.40;87.00;;;;;;5047329;28;20546;-50
2020/12/12 09:05:11;;;;;;;66.20;33.17;;;8.20;88.20;;;;;;5032888;28;20394;-49
2020/12/12 09:07:38;;;;;;;66.35;34.47;;;8.20;88.40;;;;;;5048510;28;20527;-46
2020/12/12 09:10:22;;;;;;;59.83;29.70;;;8.30;87.90;;;;;;5049649;28;20040;-47
2020/12/12 09:12:51;;;;;;;61.00;30.65;;;8.10;88.10;;;;;;5045604;28;20524;-47
2020/12/12 09:15:17;;;;;;;55.83;31.02;;;8.30;88.20;;;;;;5049817;28;20545;-45
2020/12/12 09:17:59;;;;;;;69.75;36.45;;;8.40;87.90;;;;;;5032082;28;20029;-48
2020/12/12 09:20:25;;;;;;;72.38;35.90;;;8.60;87.10;;;;;;5052819;28;20142;-50
2020/12/12 09:22:50;;;;;;;68.80;35.25;;;8.80;86.40;;;;;;5053489;28;20025;-47
2020/12/12 09:25:16;;;;;;;59.63;31.33;;;8.90;85.30;;;;;;5051886;28;20531;-47
2020/12/12 09:27:42;;;;;;;57.33;30.98;;;8.70;84.70;;;;;;5057846;28;20115;-48
2020/12/12 09:30:07;;;;;;;58.33;31.58;;;8.50;85.00;;;;;;5060483;28;20039;-45
2020/12/12 09:32:33;;;;;;;52.42;28.67;;;8.60;85.30;;;;;;5093409;28;20039;-48
2020/12/12 09:34:59;;;;;;;53.47;30.77;;;8.50;85.10;;;;;;5095204;28;20020;-49
2020/12/12 09:37:25;;;;;;;51.85;30.60;;;8.50;85.90;;;;;;5095480;28;20028;-51
2020/12/12 09:39:50;;;;;;;57.20;29.63;;;8.40;86.60;;;;;;5095339;28;20118;-50
2020/12/12 09:42:16;;;;;;;49.78;29.38;;;8.60;86.50;;;;;;5093581;28;20039;-47
2020/12/12 09:44:42;;;;;;;50.88;28.67;;;8.50;85.50;;;;;;5095261;28;20035;-48
2020/12/12 09:47:08;;;;;;;48.10;28.67;;;8.60;86.40;;;;;;5093415;28;20036;-50
2020/12/12 09:49:33;;;;;;;69.18;39.50;;;8.80;85.10;;;;;;5095307;28;20480;-49
2020/12/12 09:51:59;;;;;;;55.58;30.38;;;8.50;86.60;;;;;;5095087;28;20066;-49
2020/12/12 09:54:25;;;;;;;50.00;28.92;;;8.70;84.80;;;;;;5095289;28;20031;-44
2020/12/12 09:56:50;;;;;;;53.50;29.85;;;8.70;85.70;;;;;;5095130;28;20031;-48
2020/12/12 09:59:17;;;;;;;66.68;36.20;;;8.70;84.70;;;;;;5095150;28;20052;-46
2020/12/12 10:01:44;;;;;;;80.47;39.03;;;8.30;86.50;;;;;;5095309;28;20034;-46
2020/12/12 10:04:09;;;;;;;86.70;44.88;;;8.00;87.70;;;;;;5095691;28;20032;-49
2020/12/12 10:06:35;;;;;;;77.32;43.15;;;8.30;87.40;;;;;;5094120;28;20118;-49
2020/12/12 10:09:01;;;;;;;84.97;42.38;;;8.20;87.30;;;;;;5095565;28;20063;-43
2020/12/12 10:11:26;;;;;;;80.45;37.80;;;8.50;87.00;;;;;;5093375;28;20430;-50
2020/12/12 10:13:52;;;;;;;82.03;41.33;;;8.80;86.00;;;;;;5095553;28;20078;-50
2020/12/12 10:16:21;;;;;;;83.57;41.75;;;9.00;85.00;;;;;;5095509;28;20031;-52
2020/12/12 10:18:47;;;;;;;107.85;51.92;;;9.10;84.50;;;;;;5095676;28;20027;-48
2020/12/12 10:21:12;;;;;;;130.00;59.67;;;9.30;84.00;;;;;;5095377;28;20036;-54
2020/12/12 10:23:38;;;;;;;105.95;48.30;;;9.40;83.10;;;;;;5095555;28;20032;-49
2020/12/12 10:26:04;;;;;;;81.07;38.55;;;9.40;82.80;;;;;;5095254;28;20077;-48
2020/12/12 10:28:29;;;;;;;71.30;36.55;;;9.50;82.00;;;;;;5095194;28;20028;-47
2020/12/12 10:30:56;;;;;;;74.82;36.22;;;9.60;82.10;;;;;;5094826;28;20024;-51
2020/12/12 10:33:22;;;;;;;75.53;35.00;;;9.60;81.80;;;;;;5095015;28;20032;-53
2020/12/12 10:35:48;;;;;;;67.70;32.60;;;9.70;81.10;;;;;;5095175;28;20035;-47
2020/12/12 10:38:14;;;;;;;65.43;32.90;;;9.70;80.80;;;;;;5095052;28;20028;-56
2020/12/12 10:40:45;;;;;;;67.22;33.92;;;9.70;80.40;;;;;;5093127;28;20043;-54
2020/12/12 10:43:11;;;;;;;70.70;33.92;;;9.80;79.90;;;;;;5094999;28;20039;-45
2020/12/12 10:45:38;;;;;;;79.68;37.15;;;9.80;79.90;;;;;;5095224;28;20039;-56
2020/12/12 10:48:04;;;;;;;80.47;34.47;;;9.80;80.00;;;;;;5094759;28;20032;-52
2020/12/12 10:50:30;;;;;;;68.28;33.40;;;9.90;79.90;;;;;;5094867;28;20028;-46
2020/12/12 10:52:56;;;;;;;78.43;32.90;;;9.90;79.10;;;;;;5094963;28;20020;-47
2020/12/12 10:55:22;;;;;;;66.82;34.10;;;9.90;79.40;;;;;;5110047;28;20032;-48
2020/12/12 10:57:48;;;;;;;70.38;34.30;;;10.10;79.40;;;;;;5094878;28;20471;-51
2020/12/12 11:00:14;;;;;;;68.63;35.03;;;10.10;77.80;;;;;;5094729;28;20024;-47
2020/12/12 11:02:39;;;;;;;71.28;35.28;;;10.10;78.10;;;;;;5094813;28;20020;-46
2020/12/12 11:05:06;;;;;;;79.60;42.17;;;10.10;77.40;;;;;;5086422;28;20020;-49
2020/12/12 11:07:31;;;;;;;69.25;35.25;;;9.70;78.40;;;;;;5074317;28;20028;-53
2020/12/12 11:09:57;;;;;;;68.75;36.28;;;9.90;79.10;;;;;;5074368;28;20048;-48
2020/12/12 11:12:23;;;;;;;68.22;36.47;;;10.10;77.80;;;;;;5072492;28;20033;-50
2020/12/12 11:14:53;;;;;;;78.70;39.03;;;9.80;78.30;;;;;;5072505;28;20064;-53
2020/12/12 11:17:19;;;;;;;73.82;37.05;;;9.90;78.70;;;;;;5073931;28;20036;-52
2020/12/12 11:19:45;;;;;;;67.00;35.78;;;10.10;78.60;;;;;;5074061;28;20492;-51
2020/12/12 11:22:11;;;;;;;70.70;34.85;;;9.80;78.20;;;;;;5073933;28;20119;-52
2020/12/12 11:24:36;;;;;;;67.18;38.92;;;10.00;77.90;;;;;;5072030;28;20430;-49
2020/12/12 11:27:02;;;;;;;65.00;36.53;;;10.10;77.80;;;;;;5073855;28;20103;-47
2020/12/12 11:29:28;;;;;;;61.60;34.92;;;10.20;77.00;;;;;;5073909;28;20078;-47
2020/12/12 11:31:54;;;;;;;58.97;34.30;;;10.10;76.90;;;;;;5073884;28;20028;-49
2020/12/12 11:47:11;;;;;;;61.35;35.70;;;10.10;77.30;;;;;;5073633;28;20025;-49
2020/12/12 11:49:37;;;;;;;63.50;34.75;;;10.30;77.30;;;;;;5073712;28;20499;-54
2020/12/12 11:52:03;;;;;;;61.33;33.92;;;10.50;77.00;;;;;;5071794;28;20055;-50
2020/12/12 11:54:30;;;;;;;59.85;32.70;;;10.50;76.60;;;;;;5073597;28;20021;-46
2020/12/12 11:56:55;;;;;;;58.33;32.28;;;10.50;76.20;;;;;;5073690;28;20024;-50
2020/12/12 11:59:21;;;;;;;60.03;31.83;;;10.60;75.10;;;;;;5073529;28;20036;-52
2020/12/12 12:01:47;;;;;;;65.47;34.05;;;10.60;75.30;;;;;;5073556;28;20430;-49
2020/12/12 12:04:13;;;;;;;60.17;33.33;;;10.70;75.90;;;;;;5073397;28;20060;-53
2020/12/12 12:06:39;;;;;;;64.55;36.00;;;10.30;75.80;;;;;;5071070;28;20039;-46
2020/12/12 12:11:32;;;;;;;61.22;34.67;;;10.60;75.40;;;;;;5071524;28;20043;-42
2020/12/12 12:14:00;;;;;;;62.95;32.75;;;10.60;74.50;;;;;;5038078;28;20049;-46
2020/12/12 12:16:27;;;;;;;59.00;32.33;;;10.60;75.30;;;;;;5071441;28;20040;-46
2020/12/12 12:18:54;;;;;;;53.60;32.33;;;10.70;75.50;;;;;;5071186;28;20056;-46
2020/12/12 12:21:21;;;;;;;54.88;33.03;;;;;;;;;;5071126;28;20040;-47
2020/12/12 12:23:46;;;;;;;61.15;34.15;;;11.00;96.20;;;;;;5071553;28;20634;-44
2020/12/12 12:26:15;;;;;;;61.08;34.90;;;10.90;74.40;;;;;;5071170;28;20086;-47
2020/12/12 12:28:42;;;;;;;54.08;32.97;;;10.80;73.50;;;;;;5071392;28;20033;-45
2020/12/12 12:31:08;;;;;;;54.97;32.72;;;10.90;73.30;;;;;;5071235;28;20529;-44
2020/12/12 12:33:34;;;;;;;60.65;36.33;;;10.90;73.80;;;;;;5071346;28;20117;-46
2020/12/12 12:35:59;;;;;;;58.42;35.35;;;11.00;73.20;;;;;;5071101;28;20037;-48
2020/12/12 12:38:25;;;;;;;66.93;36.78;;;10.90;73.10;;;;;;5038179;28;20047;-49
2020/12/12 12:40:51;;;;;;;64.65;36.47;;;11.00;74.00;;;;;;5072950;28;20032;-44
2020/12/12 12:43:17;;;;;;;53.63;31.63;;;10.90;73.50;;;;;;5054355;28;20041;-44
2020/12/12 12:45:43;;;;;;;53.47;32.92;;;10.90;73.70;;;;;;5075665;28;20388;-49
2020/12/12 12:48:09;;;;;;;52.45;30.40;;;11.00;73.00;;;;;;5057428;28;20090;-43
2020/12/12 12:50:37;;;;;;;58.00;34.25;;;11.00;73.00;;;;;;5073955;28;20032;-47
2020/12/12 12:53:10;;;;;;;52.50;30.70;;;11.10;72.80;;;;;;5082683;28;20047;-48
2020/12/12 12:55:37;;;;;;;61.75;33.63;;;11.10;72.80;;;;;;5092906;28;20024;-44